sensor_id;sensor_type;location;lat;lon;timestamp;pressure;altitude;pressure_sealevel;temperature;humidity
35704;BME280;21820;51.112;13.762;2022-12-20T00:01:17;99988.28;;;21.15;57.78
35704;BME280;21820;51.112;13.762;2022-12-20T00:03:42;99984.97;;;21.13;57.08
35704;BME280;21820;51.112;13.762;2022-12-20T00:06:09;99959.56;;;21.04;57.64
35704;BME280;21820;51.112;13.762;2022-12-20T00:08:35;99977.66;;;21.07;57.42
35704;BME280;21820;51.112;13.762;2022-12-20T00:11:02;99975.50;;;21.01;57.06
35704;BME280;21820;51.112;13.762;2022-12-20T00:13:29;99991.19;;;21.01;57.19
35704;BME280;21820;51.112;13.762;2022-12-20T00:16:09;99954.78;;;21.09;57.40
35704;BME280;21820;51.112;13.762;2022-12-20T00:18:36;99955.94;;;21.16;57.16
35704;BME280;21820;51.112;13.762;2022-12-20T00:21:02;99959.97;;;21.20;56.69
35704;BME280;21820;51.112;13.762;2022-12-20T00:23:28;99943.81;;;21.36;56.63
35704;BME280;21820;51.112;13.762;2022-12-20T00:26:05;99959.25;;;21.39;56.15
35704;BME280;21820;51.112;13.762;2022-12-20T00:28:32;99952.41;;;21.47;56.28
35704;BME280;21820;51.112;13.762;2022-12-20T00:30:59;99941.75;;;21.60;55.98
35704;BME280;21820;51.112;13.762;2022-12-20T00:33:24;99942.31;;;21.63;55.52
35704;BME280;21820;51.112;13.762;2022-12-20T00:35:50;99944.94;;;21.63;55.57
35704;BME280;21820;51.112;13.762;2022-12-20T00:38:15;99916.78;;;21.56;55.39
35704;BME280;21820;51.112;13.762;2022-12-20T00:40:40;99929.09;;;21.65;55.56
35704;BME280;21820;51.112;13.762;2022-12-20T00:43:06;99929.72;;;21.57;55.81
35704;BME280;21820;51.112;13.762;2022-12-20T00:45:31;99934.53;;;21.52;55.79
35704;BME280;21820;51.112;13.762;2022-12-20T00:47:57;99924.34;;;21.49;56.07
35704;BME280;21820;51.112;13.762;2022-12-20T00:50:22;99927.47;;;21.43;55.90
35704;BME280;21820;51.112;13.762;2022-12-20T00:52:48;99931.31;;;21.39;56.70
35704;BME280;21820;51.112;13.762;2022-12-20T00:55:13;99918.06;;;21.31;56.54
35704;BME280;21820;51.112;13.762;2022-12-20T00:57:39;99911.81;;;21.23;56.70
35704;BME280;21820;51.112;13.762;2022-12-20T01:00:04;99927.22;;;21.26;56.77
35704;BME280;21820;51.112;13.762;2022-12-20T01:02:31;99933.00;;;21.20;57.77
35704;BME280;21820;51.112;13.762;2022-12-20T01:04:56;99926.13;;;21.19;57.21
35704;BME280;21820;51.112;13.762;2022-12-20T01:07:21;99929.66;;;21.18;56.90
35704;BME280;21820;51.112;13.762;2022-12-20T01:09:47;99910.34;;;21.09;57.68
35704;BME280;21820;51.112;13.762;2022-12-20T01:12:13;99906.66;;;21.12;57.33
35704;BME280;21820;51.112;13.762;2022-12-20T01:14:39;99908.44;;;21.11;58.00
35704;BME280;21820;51.112;13.762;2022-12-20T01:17:04;99903.09;;;21.13;57.70
35704;BME280;21820;51.112;13.762;2022-12-20T01:19:29;99911.25;;;21.19;57.42
35704;BME280;21820;51.112;13.762;2022-12-20T01:21:55;99904.09;;;21.21;56.86
35704;BME280;21820;51.112;13.762;2022-12-20T01:24:20;99912.38;;;21.26;57.25
35704;BME280;21820;51.112;13.762;2022-12-20T01:26:46;99898.63;;;21.34;56.88
35704;BME280;21820;51.112;13.762;2022-12-20T01:29:12;99896.09;;;21.43;56.42
35704;BME280;21820;51.112;13.762;2022-12-20T01:31:38;99898.19;;;21.49;56.54
35704;BME280;21820;51.112;13.762;2022-12-20T01:34:03;99911.41;;;21.57;55.57
35704;BME280;21820;51.112;13.762;2022-12-20T01:36:31;99920.84;;;21.69;55.66
35704;BME280;21820;51.112;13.762;2022-12-20T01:38:59;99918.94;;;21.71;55.83
35704;BME280;21820;51.112;13.762;2022-12-20T01:41:26;99922.22;;;21.73;55.03
35704;BME280;21820;51.112;13.762;2022-12-20T01:43:59;99895.72;;;21.57;55.36
35704;BME280;21820;51.112;13.762;2022-12-20T01:46:27;99919.44;;;21.65;55.94
35704;BME280;21820;51.112;13.762;2022-12-20T01:51:28;99903.56;;;21.57;55.78
35704;BME280;21820;51.112;13.762;2022-12-20T01:54:01;99911.56;;;21.56;55.89
35704;BME280;21820;51.112;13.762;2022-12-20T01:56:28;99917.47;;;21.48;56.32
35704;BME280;21820;51.112;13.762;2022-12-20T01:58:54;99912.03;;;21.40;56.22
35704;BME280;21820;51.112;13.762;2022-12-20T02:01:22;99910.66;;;21.36;57.32
35704;BME280;21820;51.112;13.762;2022-12-20T02:03:48;99911.63;;;21.35;56.42
35704;BME280;21820;51.112;13.762;2022-12-20T02:06:25;99912.13;;;21.29;56.95
35704;BME280;21820;51.112;13.762;2022-12-20T02:08:51;99913.22;;;21.27;56.91
35704;BME280;21820;51.112;13.762;2022-12-20T02:11:43;99911.94;;;21.21;57.32
35704;BME280;21820;51.112;13.762;2022-12-20T02:14:42;99916.34;;;21.21;57.88
35704;BME280;21820;51.112;13.762;2022-12-20T02:20:21;99913.41;;;21.14;57.35
35704;BME280;21820;51.112;13.762;2022-12-20T02:31:10;99903.38;;;21.40;56.77
35704;BME280;21820;51.112;13.762;2022-12-20T02:33:39;99903.66;;;21.46;56.74
35704;BME280;21820;51.112;13.762;2022-12-20T02:36:06;99903.97;;;21.53;55.84
35704;BME280;21820;51.112;13.762;2022-12-20T02:38:36;99895.88;;;21.65;56.20
35704;BME280;21820;51.112;13.762;2022-12-20T02:41:18;99895.75;;;21.67;56.10
35704;BME280;21820;51.112;13.762;2022-12-20T02:43:48;99921.28;;;21.74;55.67
35704;BME280;21820;51.112;13.762;2022-12-20T02:46:35;99904.88;;;21.72;55.91
35704;BME280;21820;51.112;13.762;2022-12-20T02:49:05;99912.00;;;21.70;55.56
35704;BME280;21820;51.112;13.762;2022-12-20T02:51:33;99905.41;;;21.66;55.70
35704;BME280;21820;51.112;13.762;2022-12-20T02:53:59;99899.88;;;21.60;56.43
35704;BME280;21820;51.112;13.762;2022-12-20T02:56:32;99873.06;;;21.37;56.63
35704;BME280;21820;51.112;13.762;2022-12-20T03:01:38;99891.94;;;21.41;56.54
35704;BME280;21820;51.112;13.762;2022-12-20T03:04:05;99882.44;;;21.40;56.50
35704;BME280;21820;51.112;13.762;2022-12-20T03:06:31;99911.47;;;21.37;56.62
35704;BME280;21820;51.112;13.762;2022-12-20T03:08:57;99890.00;;;21.33;56.83
35704;BME280;21820;51.112;13.762;2022-12-20T03:11:22;99882.28;;;21.32;56.97
35704;BME280;21820;51.112;13.762;2022-12-20T03:13:47;99872.44;;;21.24;57.12
35704;BME280;21820;51.112;13.762;2022-12-20T03:16:13;99869.97;;;21.23;57.56
35704;BME280;21820;51.112;13.762;2022-12-20T03:18:39;99862.97;;;21.23;57.02
35704;BME280;21820;51.112;13.762;2022-12-20T03:21:04;99863.22;;;21.20;57.73
35704;BME280;21820;51.112;13.762;2022-12-20T03:23:30;99852.34;;;21.15;57.29
35704;BME280;21820;51.112;13.762;2022-12-20T03:25:55;99859.13;;;21.27;57.10
35704;BME280;21820;51.112;13.762;2022-12-20T03:28:21;99864.78;;;21.32;56.60
35704;BME280;21820;51.112;13.762;2022-12-20T03:30:46;99869.50;;;21.38;56.48
35704;BME280;21820;51.112;13.762;2022-12-20T03:33:12;99871.31;;;21.47;56.06
35704;BME280;21820;51.112;13.762;2022-12-20T03:35:37;99873.16;;;21.56;55.81
35704;BME280;21820;51.112;13.762;2022-12-20T03:38:03;99866.81;;;21.68;55.94
35704;BME280;21820;51.112;13.762;2022-12-20T03:40:28;99866.06;;;21.77;55.85
35704;BME280;21820;51.112;13.762;2022-12-20T03:42:53;99854.19;;;21.73;55.56
35704;BME280;21820;51.112;13.762;2022-12-20T03:45:19;99851.69;;;21.62;55.72
35704;BME280;21820;51.112;13.762;2022-12-20T03:47:44;99868.22;;;21.72;55.39
35704;BME280;21820;51.112;13.762;2022-12-20T03:50:11;99875.66;;;21.67;55.97
35704;BME280;21820;51.112;13.762;2022-12-20T03:52:36;99865.72;;;21.61;56.23
35704;BME280;21820;51.112;13.762;2022-12-20T03:55:03;99868.84;;;21.55;55.78
35704;BME280;21820;51.112;13.762;2022-12-20T03:57:28;99872.84;;;21.50;56.18
35704;BME280;21820;51.112;13.762;2022-12-20T03:59:53;99871.72;;;21.43;56.39
35704;BME280;21820;51.112;13.762;2022-12-20T04:02:19;99868.41;;;21.41;56.75
35704;BME280;21820;51.112;13.762;2022-12-20T04:04:45;99864.28;;;21.38;56.74
35704;BME280;21820;51.112;13.762;2022-12-20T04:07:10;99866.44;;;21.33;56.94
35704;BME280;21820;51.112;13.762;2022-12-20T04:09:36;99863.13;;;21.31;57.67
35704;BME280;21820;51.112;13.762;2022-12-20T04:12:01;99858.44;;;21.25;57.71
35704;BME280;21820;51.112;13.762;2022-12-20T04:14:27;99865.56;;;21.23;56.97
35704;BME280;21820;51.112;13.762;2022-12-20T04:16:52;99842.38;;;21.09;57.32
35704;BME280;21820;51.112;13.762;2022-12-20T04:19:18;99847.09;;;21.15;57.29
35704;BME280;21820;51.112;13.762;2022-12-20T04:21:43;99853.00;;;21.17;57.62
35704;BME280;21820;51.112;13.762;2022-12-20T04:24:09;99858.38;;;21.16;57.26
35704;BME280;21820;51.112;13.762;2022-12-20T04:26:34;99855.88;;;21.14;57.74
35704;BME280;21820;51.112;13.762;2022-12-20T04:29:00;99857.28;;;21.18;57.56
35704;BME280;21820;51.112;13.762;2022-12-20T04:31:25;99858.44;;;21.25;57.37
35704;BME280;21820;51.112;13.762;2022-12-20T04:33:51;99856.25;;;21.30;57.45
35704;BME280;21820;51.112;13.762;2022-12-20T04:36:16;99860.41;;;21.42;56.43
35704;BME280;21820;51.112;13.762;2022-12-20T04:38:42;99852.78;;;21.60;55.90
35704;BME280;21820;51.112;13.762;2022-12-20T04:41:07;99842.66;;;21.85;55.53
35704;BME280;21820;51.112;13.762;2022-12-20T04:43:32;99851.22;;;22.07;54.55
35704;BME280;21820;51.112;13.762;2022-12-20T04:45:58;99852.06;;;22.17;54.28
35704;BME280;21820;51.112;13.762;2022-12-20T04:48:25;99854.97;;;22.42;53.65
35704;BME280;21820;51.112;13.762;2022-12-20T04:50:54;99847.97;;;22.62;52.69
35704;BME280;21820;51.112;13.762;2022-12-20T04:53:21;99861.03;;;22.81;52.22
35704;BME280;21820;51.112;13.762;2022-12-20T04:56:05;99856.72;;;22.99;52.35
35704;BME280;21820;51.112;13.762;2022-12-20T04:58:31;99860.16;;;22.99;52.41
35704;BME280;21820;51.112;13.762;2022-12-20T05:00:57;99826.50;;;22.95;51.89
35704;BME280;21820;51.112;13.762;2022-12-20T05:03:23;99847.00;;;23.09;51.93
35704;BME280;21820;51.112;13.762;2022-12-20T05:05:49;99840.66;;;23.11;51.70
35704;BME280;21820;51.112;13.762;2022-12-20T05:08:15;99836.25;;;23.12;52.11
35704;BME280;21820;51.112;13.762;2022-12-20T05:10:40;99836.53;;;23.09;51.76
35704;BME280;21820;51.112;13.762;2022-12-20T05:13:06;99835.84;;;23.07;52.05
35704;BME280;21820;51.112;13.762;2022-12-20T05:15:31;99832.16;;;23.00;51.92
35704;BME280;21820;51.112;13.762;2022-12-20T05:17:57;99830.22;;;22.92;52.73
35704;BME280;21820;51.112;13.762;2022-12-20T05:20:28;99833.16;;;22.80;52.83
35704;BME280;21820;51.112;13.762;2022-12-20T05:22:53;99819.41;;;22.59;53.30
35704;BME280;21820;51.112;13.762;2022-12-20T05:25:43;99832.81;;;22.56;53.20
35704;BME280;21820;51.112;13.762;2022-12-20T05:28:27;99836.34;;;22.45;53.90
35704;BME280;21820;51.112;13.762;2022-12-20T05:30:53;99827.53;;;22.37;53.82
35704;BME280;21820;51.112;13.762;2022-12-20T05:33:19;99811.84;;;22.18;53.97
35704;BME280;21820;51.112;13.762;2022-12-20T05:35:44;99819.00;;;22.16;54.41
35704;BME280;21820;51.112;13.762;2022-12-20T05:38:09;99825.19;;;22.05;55.25
35704;BME280;21820;51.112;13.762;2022-12-20T05:40:35;99817.34;;;21.95;55.27
35704;BME280;21820;51.112;13.762;2022-12-20T05:43:00;99825.75;;;21.89;55.37
35704;BME280;21820;51.112;13.762;2022-12-20T05:45:26;99815.78;;;21.83;55.63
35704;BME280;21820;51.112;13.762;2022-12-20T05:47:51;99821.44;;;21.79;56.32
35704;BME280;21820;51.112;13.762;2022-12-20T05:50:17;99824.03;;;21.69;55.94
35704;BME280;21820;51.112;13.762;2022-12-20T05:52:42;99826.91;;;21.66;56.03
35704;BME280;21820;51.112;13.762;2022-12-20T05:55:08;99822.91;;;21.62;56.38
35704;BME280;21820;51.112;13.762;2022-12-20T05:57:33;99824.25;;;21.57;56.17
35704;BME280;21820;51.112;13.762;2022-12-20T05:59:58;99801.94;;;21.43;56.92
35704;BME280;21820;51.112;13.762;2022-12-20T06:02:24;99830.28;;;21.48;56.41
35704;BME280;21820;51.112;13.762;2022-12-20T06:04:50;99820.91;;;21.45;57.30
35704;BME280;21820;51.112;13.762;2022-12-20T06:07:15;99827.66;;;21.38;56.69
35704;BME280;21820;51.112;13.762;2022-12-20T06:09:40;99823.78;;;21.33;57.05
35704;BME280;21820;51.112;13.762;2022-12-20T06:12:06;99815.22;;;21.31;57.22
35704;BME280;21820;51.112;13.762;2022-12-20T06:14:31;99813.84;;;21.27;57.07
35704;BME280;21820;51.112;13.762;2022-12-20T06:16:56;99812.19;;;21.26;57.20
35704;BME280;21820;51.112;13.762;2022-12-20T06:19:22;99809.97;;;21.21;57.60
35704;BME280;21820;51.112;13.762;2022-12-20T06:21:47;99802.91;;;21.12;58.00
35704;BME280;21820;51.112;13.762;2022-12-20T06:24:13;99816.53;;;21.16;57.38
35704;BME280;21820;51.112;13.762;2022-12-20T06:26:38;99812.16;;;21.16;57.67
35704;BME280;21820;51.112;13.762;2022-12-20T06:29:05;99819.31;;;21.24;57.42
35704;BME280;21820;51.112;13.762;2022-12-20T06:31:38;99809.28;;;21.29;56.73
35704;BME280;21820;51.112;13.762;2022-12-20T06:34:03;99817.13;;;21.29;57.69
35704;BME280;21820;51.112;13.762;2022-12-20T06:36:29;99812.22;;;21.35;57.61
35704;BME280;21820;51.112;13.762;2022-12-20T06:38:54;99814.16;;;21.33;57.36
35704;BME280;21820;51.112;13.762;2022-12-20T06:41:19;99816.91;;;21.41;56.68
35704;BME280;21820;51.112;13.762;2022-12-20T06:43:45;99822.16;;;21.41;56.77
35704;BME280;21820;51.112;13.762;2022-12-20T06:46:10;99802.09;;;21.51;56.37
35704;BME280;21820;51.112;13.762;2022-12-20T06:48:35;99816.97;;;21.60;56.58
35704;BME280;21820;51.112;13.762;2022-12-20T06:51:01;99792.19;;;21.55;56.41
35704;BME280;21820;51.112;13.762;2022-12-20T06:53:26;99809.41;;;21.67;56.28
35704;BME280;21820;51.112;13.762;2022-12-20T06:55:51;99819.50;;;21.71;55.63
35704;BME280;21820;51.112;13.762;2022-12-20T06:58:18;99823.94;;;21.80;55.81
35704;BME280;21820;51.112;13.762;2022-12-20T07:00:43;99822.28;;;21.89;55.71
35704;BME280;21820;51.112;13.762;2022-12-20T07:03:09;99834.97;;;21.93;55.00
35704;BME280;21820;51.112;13.762;2022-12-20T07:05:34;99833.03;;;21.95;55.33
35704;BME280;21820;51.112;13.762;2022-12-20T07:07:59;99819.53;;;21.90;54.65
35704;BME280;21820;51.112;13.762;2022-12-20T07:10:27;99825.06;;;22.07;55.02
35704;BME280;21820;51.112;13.762;2022-12-20T07:12:52;99812.50;;;22.01;54.73
35704;BME280;21820;51.112;13.762;2022-12-20T07:15:17;99827.84;;;22.15;54.51
35704;BME280;21820;51.112;13.762;2022-12-20T07:17:43;99816.81;;;22.21;54.50
35704;BME280;21820;51.112;13.762;2022-12-20T07:20:09;99814.31;;;22.29;54.15
35704;BME280;21820;51.112;13.762;2022-12-20T07:22:36;99809.91;;;22.29;54.12
35704;BME280;21820;51.112;13.762;2022-12-20T07:25:01;99804.13;;;22.16;54.66
35704;BME280;21820;51.112;13.762;2022-12-20T07:27:26;99809.63;;;22.23;54.65
35704;BME280;21820;51.112;13.762;2022-12-20T07:29:52;99802.72;;;22.22;54.66
35704;BME280;21820;51.112;13.762;2022-12-20T07:32:17;99789.50;;;22.14;55.03
35704;BME280;21820;51.112;13.762;2022-12-20T07:34:42;99799.13;;;22.13;54.86
35704;BME280;21820;51.112;13.762;2022-12-20T07:37:08;99801.91;;;22.12;54.92
35704;BME280;21820;51.112;13.762;2022-12-20T07:39:33;99805.63;;;22.09;54.96
35704;BME280;21820;51.112;13.762;2022-12-20T07:41:59;99800.53;;;22.08;55.28
35704;BME280;21820;51.112;13.762;2022-12-20T07:44:24;99805.50;;;22.11;55.33
35704;BME280;21820;51.112;13.762;2022-12-20T07:46:49;99806.88;;;22.05;55.06
35704;BME280;21820;51.112;13.762;2022-12-20T07:49:15;99802.47;;;22.06;55.06
35704;BME280;21820;51.112;13.762;2022-12-20T07:51:45;99795.84;;;22.11;54.87
35704;BME280;21820;51.112;13.762;2022-12-20T07:54:16;99796.94;;;22.09;54.87
35704;BME280;21820;51.112;13.762;2022-12-20T07:56:47;99803.84;;;22.10;54.96
35704;BME280;21820;51.112;13.762;2022-12-20T07:59:18;99808.41;;;22.08;54.56
35704;BME280;21820;51.112;13.762;2022-12-20T08:01:46;99809.34;;;22.07;55.00
35704;BME280;21820;51.112;13.762;2022-12-20T08:04:23;99806.06;;;22.05;54.81
35704;BME280;21820;51.112;13.762;2022-12-20T08:06:51;99818.16;;;22.06;54.85
35704;BME280;21820;51.112;13.762;2022-12-20T08:09:20;99812.94;;;22.06;54.89
35704;BME280;21820;51.112;13.762;2022-12-20T08:11:47;99809.19;;;21.98;55.32
35704;BME280;21820;51.112;13.762;2022-12-20T08:14:15;99809.91;;;22.01;55.46
35704;BME280;21820;51.112;13.762;2022-12-20T08:16:41;99804.09;;;21.97;55.34
35704;BME280;21820;51.112;13.762;2022-12-20T08:19:07;99810.03;;;21.89;55.68
35704;BME280;21820;51.112;13.762;2022-12-20T08:21:33;99802.47;;;21.86;55.79
35704;BME280;21820;51.112;13.762;2022-12-20T08:23:58;99810.38;;;21.75;55.63
35704;BME280;21820;51.112;13.762;2022-12-20T08:26:23;99805.16;;;21.75;56.28
35704;BME280;21820;51.112;13.762;2022-12-20T08:28:49;99813.59;;;21.79;56.22
35704;BME280;21820;51.112;13.762;2022-12-20T08:31:14;99818.13;;;21.77;55.74
35704;BME280;21820;51.112;13.762;2022-12-20T08:33:40;99825.28;;;21.75;55.92
35704;BME280;21820;51.112;13.762;2022-12-20T08:36:09;99821.59;;;21.77;56.26
35704;BME280;21820;51.112;13.762;2022-12-20T08:38:34;99817.53;;;21.73;55.93
35704;BME280;21820;51.112;13.762;2022-12-20T08:41:05;99822.78;;;21.73;56.04
35704;BME280;21820;51.112;13.762;2022-12-20T08:43:32;99834.91;;;21.74;55.86
35704;BME280;21820;51.112;13.762;2022-12-20T08:45:57;99800.31;;;21.61;56.21
35704;BME280;21820;51.112;13.762;2022-12-20T08:48:23;99829.69;;;21.74;55.83
35704;BME280;21820;51.112;13.762;2022-12-20T08:50:58;99829.69;;;21.74;56.09
35704;BME280;21820;51.112;13.762;2022-12-20T08:53:25;99818.66;;;21.71;55.99
35704;BME280;21820;51.112;13.762;2022-12-20T08:55:51;99808.19;;;21.71;56.33
35704;BME280;21820;51.112;13.762;2022-12-20T08:58:16;99826.91;;;21.66;56.56
35704;BME280;21820;51.112;13.762;2022-12-20T09:00:42;99819.72;;;21.68;56.37
35704;BME280;21820;51.112;13.762;2022-12-20T09:03:07;99814.50;;;21.68;56.71
35704;BME280;21820;51.112;13.762;2022-12-20T09:05:35;99815.03;;;21.62;56.24
35704;BME280;21820;51.112;13.762;2022-12-20T09:08:00;99807.34;;;21.61;56.62
35704;BME280;21820;51.112;13.762;2022-12-20T09:10:26;99810.09;;;21.59;56.77
35704;BME280;21820;51.112;13.762;2022-12-20T09:12:51;99821.53;;;21.58;56.60
35704;BME280;21820;51.112;13.762;2022-12-20T09:15:16;99823.31;;;21.58;56.37
35704;BME280;21820;51.112;13.762;2022-12-20T09:17:42;99824.94;;;21.59;56.61
35704;BME280;21820;51.112;13.762;2022-12-20T09:20:07;99820.41;;;21.61;56.23
35704;BME280;21820;51.112;13.762;2022-12-20T09:22:33;99843.13;;;21.60;56.48
35704;BME280;21820;51.112;13.762;2022-12-20T09:24:58;99829.09;;;21.61;56.04
35704;BME280;21820;51.112;13.762;2022-12-20T09:27:23;99822.91;;;21.62;56.40
35704;BME280;21820;51.112;13.762;2022-12-20T09:29:49;99810.34;;;21.47;56.53
35704;BME280;21820;51.112;13.762;2022-12-20T09:32:14;99813.69;;;21.58;56.48
35704;BME280;21820;51.112;13.762;2022-12-20T09:34:40;99827.44;;;21.60;56.08
35704;BME280;21820;51.112;13.762;2022-12-20T09:37:05;99825.78;;;21.59;56.77
35704;BME280;21820;51.112;13.762;2022-12-20T09:39:30;99834.34;;;21.61;56.12
35704;BME280;21820;51.112;13.762;2022-12-20T09:41:56;99815.31;;;21.59;56.27
35704;BME280;21820;51.112;13.762;2022-12-20T09:44:31;99813.53;;;21.60;56.40
35704;BME280;21820;51.112;13.762;2022-12-20T09:47:19;99823.56;;;21.55;56.79
35704;BME280;21820;51.112;13.762;2022-12-20T09:49:50;99826.88;;;21.57;56.87
35704;BME280;21820;51.112;13.762;2022-12-20T10:00:43;99833.22;;;21.54;57.02
35704;BME280;21820;51.112;13.762;2022-12-20T10:03:18;99837.75;;;21.52;56.36
35704;BME280;21820;51.112;13.762;2022-12-20T10:08:36;99837.47;;;21.55;56.94
35704;BME280;21820;51.112;13.762;2022-12-20T10:11:18;99839.28;;;21.55;56.38
35704;BME280;21820;51.112;13.762;2022-12-20T10:14:17;99837.59;;;21.54;56.49
35704;BME280;21820;51.112;13.762;2022-12-20T10:16:52;99848.91;;;21.54;56.91
35704;BME280;21820;51.112;13.762;2022-12-20T10:25:15;99820.13;;;21.54;57.06
35704;BME280;21820;51.112;13.762;2022-12-20T10:27:42;99807.88;;;21.55;56.21
35704;BME280;21820;51.112;13.762;2022-12-20T10:30:19;99786.38;;;21.42;56.65
35704;BME280;21820;51.112;13.762;2022-12-20T10:32:47;99812.53;;;21.51;57.25
35704;BME280;21820;51.112;13.762;2022-12-20T10:37:55;99806.75;;;21.48;56.49
35704;BME280;21820;51.112;13.762;2022-12-20T10:40:32;99804.28;;;21.46;56.95
35704;BME280;21820;51.112;13.762;2022-12-20T10:42:59;99815.88;;;21.53;56.91
35704;BME280;21820;51.112;13.762;2022-12-20T10:48:01;99786.53;;;21.50;56.94
35704;BME280;21820;51.112;13.762;2022-12-20T10:50:27;99796.56;;;21.54;56.58
35704;BME280;21820;51.112;13.762;2022-12-20T10:55:40;99788.47;;;21.57;56.97
35704;BME280;21820;51.112;13.762;2022-12-20T10:58:13;99778.97;;;21.56;57.03
35704;BME280;21820;51.112;13.762;2022-12-20T11:00:39;99761.88;;;21.52;56.93
35704;BME280;21820;51.112;13.762;2022-12-20T11:05:40;99773.03;;;21.54;56.68
35704;BME280;21820;51.112;13.762;2022-12-20T11:08:16;99758.97;;;21.55;57.04
35704;BME280;21820;51.112;13.762;2022-12-20T11:10:43;99752.09;;;21.54;56.87
35704;BME280;21820;51.112;13.762;2022-12-20T11:13:25;99749.06;;;21.49;57.10
35704;BME280;21820;51.112;13.762;2022-12-20T11:15:53;99747.16;;;21.51;56.50
35704;BME280;21820;51.112;13.762;2022-12-20T11:41:57;99703.38;;;21.53;56.43
35704;BME280;21820;51.112;13.762;2022-12-20T11:53:07;99677.75;;;21.47;57.22
35704;BME280;21820;51.112;13.762;2022-12-20T11:55:35;99685.59;;;21.47;56.54
35704;BME280;21820;51.112;13.762;2022-12-20T11:58:24;99690.25;;;21.44;56.60
35704;BME280;21820;51.112;13.762;2022-12-20T12:01:16;99689.47;;;21.43;57.34
35704;BME280;21820;51.112;13.762;2022-12-20T12:03:49;99696.06;;;21.47;56.96
35704;BME280;21820;51.112;13.762;2022-12-20T12:06:27;99699.50;;;21.48;56.80
35704;BME280;21820;51.112;13.762;2022-12-20T12:11:32;99693.72;;;21.44;56.61
35704;BME280;21820;51.112;13.762;2022-12-20T12:14:00;99678.44;;;21.49;57.30
35704;BME280;21820;51.112;13.762;2022-12-20T12:16:36;99682.84;;;21.49;56.76
35704;BME280;21820;51.112;13.762;2022-12-20T12:19:08;99655.03;;;21.38;56.93
35704;BME280;21820;51.112;13.762;2022-12-20T12:21:38;99669.63;;;21.50;57.05
35704;BME280;21820;51.112;13.762;2022-12-20T12:26:37;99654.19;;;21.47;56.45
35704;BME280;21820;51.112;13.762;2022-12-20T12:29:09;99657.25;;;21.52;57.20
35704;BME280;21820;51.112;13.762;2022-12-20T12:42:21;99628.31;;;21.44;56.86
35704;BME280;21820;51.112;13.762;2022-12-20T12:48:34;99619.41;;;21.47;57.23
35704;BME280;21820;51.112;13.762;2022-12-20T12:50:36;99623.94;;;21.45;56.62
35704;BME280;21820;51.112;13.762;2022-12-20T12:53:05;99622.81;;;21.47;57.17
35704;BME280;21820;51.112;13.762;2022-12-20T12:55:43;99629.97;;;21.45;57.41
35704;BME280;21820;51.112;13.762;2022-12-20T13:03:42;99622.81;;;21.47;56.66
35704;BME280;21820;51.112;13.762;2022-12-20T13:09:09;99619.13;;;21.50;56.79
35704;BME280;21820;51.112;13.762;2022-12-20T13:16:54;99607.81;;;21.49;56.98
35704;BME280;21820;51.112;13.762;2022-12-20T13:19:40;99578.94;;;21.32;56.87
35704;BME280;21820;51.112;13.762;2022-12-20T13:24:58;99599.56;;;21.44;56.66
35704;BME280;21820;51.112;13.762;2022-12-20T13:27:40;99601.47;;;21.42;57.18
35704;BME280;21820;51.112;13.762;2022-12-20T13:37:52;99577.00;;;21.43;57.34
35704;BME280;21820;51.112;13.762;2022-12-20T13:40:42;99575.88;;;21.46;57.31
35704;BME280;21820;51.112;13.762;2022-12-20T13:51:15;99558.41;;;21.46;56.83
35704;BME280;21820;51.112;13.762;2022-12-20T13:53:50;99561.72;;;21.48;56.73
35704;BME280;21820;51.112;13.762;2022-12-20T13:59:13;99565.28;;;21.47;56.98
35704;BME280;21820;51.112;13.762;2022-12-20T14:01:46;99556.22;;;21.42;57.31
35704;BME280;21820;51.112;13.762;2022-12-20T14:04:12;99546.16;;;21.37;56.79
35704;BME280;21820;51.112;13.762;2022-12-20T14:06:38;99556.72;;;21.45;57.31
35704;BME280;21820;51.112;13.762;2022-12-20T14:09:34;99553.72;;;21.40;56.93
35704;BME280;21820;51.112;13.762;2022-12-20T14:12:14;99538.31;;;21.18;52.68
35704;BME280;21820;51.112;13.762;2022-12-20T14:14:44;99556.47;;;21.29;51.27
35704;BME280;21820;51.112;13.762;2022-12-20T14:17:27;99550.16;;;21.32;52.26
35704;BME280;21820;51.112;13.762;2022-12-20T14:20:12;99558.66;;;21.34;52.25
35704;BME280;21820;51.112;13.762;2022-12-20T14:22:42;99544.09;;;21.41;52.73
35704;BME280;21820;51.112;13.762;2022-12-20T14:25:15;99550.00;;;21.43;52.88
35704;BME280;21820;51.112;13.762;2022-12-20T14:27:42;99535.81;;;21.45;53.32
35704;BME280;21820;51.112;13.762;2022-12-20T14:30:26;99531.56;;;21.44;53.83
35704;BME280;21820;51.112;13.762;2022-12-20T14:32:53;99534.97;;;21.54;53.45
35704;BME280;21820;51.112;13.762;2022-12-20T14:35:20;99524.50;;;21.54;53.46
35704;BME280;21820;51.112;13.762;2022-12-20T14:37:59;99525.34;;;21.55;54.17
35704;BME280;21820;51.112;13.762;2022-12-20T14:40:28;99530.03;;;21.51;54.09
35704;BME280;21820;51.112;13.762;2022-12-20T14:42:54;99519.56;;;21.51;54.14
35704;BME280;21820;51.112;13.762;2022-12-20T14:45:23;99520.00;;;21.47;53.93
35704;BME280;21820;51.112;13.762;2022-12-20T14:47:56;99512.66;;;21.50;54.94
35704;BME280;21820;51.112;13.762;2022-12-20T14:52:57;99491.91;;;21.39;55.03
35704;BME280;21820;51.112;13.762;2022-12-20T14:55:36;99520.91;;;21.55;54.48
35704;BME280;21820;51.112;13.762;2022-12-20T14:58:22;99506.91;;;21.56;55.03
35704;BME280;21820;51.112;13.762;2022-12-20T15:01:20;99505.47;;;21.62;54.67
35704;BME280;21820;51.112;13.762;2022-12-20T15:03:54;99497.13;;;21.58;54.56
35704;BME280;21820;51.112;13.762;2022-12-20T15:08:56;99510.97;;;21.68;54.17
35704;BME280;21820;51.112;13.762;2022-12-20T15:11:21;99509.03;;;21.70;54.73
35704;BME280;21820;51.112;13.762;2022-12-20T15:13:47;99514.28;;;21.70;55.05